sensor_id;sensor_type;location;lat;lon;timestamp;temperature;humidity
53264;DHT22;39153;52.680;6.172;2024-01-27T00:01:33;3.30;99.90
53264;DHT22;39153;52.680;6.172;2024-01-27T00:03:59;3.20;99.90
53264;DHT22;39153;52.680;6.172;2024-01-27T00:06:25;3.20;99.90
53264;DHT22;39153;52.680;6.172;2024-01-27T00:08:50;2.70;99.90
53264;DHT22;39153;52.680;6.172;2024-01-27T00:11:16;2.50;99.90
53264;DHT22;39153;52.680;6.172;2024-01-27T00:13:42;2.70;99.90
53264;DHT22;39153;52.680;6.172;2024-01-27T00:16:09;2.50;99.90
53264;DHT22;39153;52.680;6.172;2024-01-27T00:18:38;3.00;99.90
53264;DHT22;39153;52.680;6.172;2024-01-27T00:21:05;2.40;99.90
53264;DHT22;39153;52.680;6.172;2024-01-27T00:23:31;3.00;99.90
53264;DHT22;39153;52.680;6.172;2024-01-27T00:25:58;2.40;99.90
53264;DHT22;39153;52.680;6.172;2024-01-27T00:28:24;3.00;99.90
53264;DHT22;39153;52.680;6.172;2024-01-27T00:30:49;2.50;99.90
53264;DHT22;39153;52.680;6.172;2024-01-27T00:33:15;3.00;99.90
53264;DHT22;39153;52.680;6.172;2024-01-27T00:35:41;2.30;99.90
53264;DHT22;39153;52.680;6.172;2024-01-27T00:38:07;2.40;99.90
53264;DHT22;39153;52.680;6.172;2024-01-27T00:40:33;2.90;99.90
53264;DHT22;39153;52.680;6.172;2024-01-27T00:42:58;2.60;99.90
53264;DHT22;39153;52.680;6.172;2024-01-27T00:45:24;2.40;99.90
53264;DHT22;39153;52.680;6.172;2024-01-27T00:47:51;2.40;99.90
53264;DHT22;39153;52.680;6.172;2024-01-27T00:50:17;2.20;99.90
53264;DHT22;39153;52.680;6.172;2024-01-27T00:52:43;2.60;99.90
53264;DHT22;39153;52.680;6.172;2024-01-27T00:55:09;2.60;99.90
53264;DHT22;39153;52.680;6.172;2024-01-27T00:57:37;2.40;99.90
53264;DHT22;39153;52.680;6.172;2024-01-27T01:00:07;2.00;99.90
53264;DHT22;39153;52.680;6.172;2024-01-27T01:02:34;2.00;99.90
53264;DHT22;39153;52.680;6.172;2024-01-27T01:05:01;2.20;99.90
53264;DHT22;39153;52.680;6.172;2024-01-27T01:07:26;2.60;99.90
53264;DHT22;39153;52.680;6.172;2024-01-27T01:09:52;1.90;99.90
53264;DHT22;39153;52.680;6.172;2024-01-27T01:12:18;2.10;99.90
53264;DHT22;39153;52.680;6.172;2024-01-27T01:14:44;2.30;99.90
53264;DHT22;39153;52.680;6.172;2024-01-27T01:17:09;2.50;99.90
53264;DHT22;39153;52.680;6.172;2024-01-27T01:19:38;2.30;99.90
53264;DHT22;39153;52.680;6.172;2024-01-27T01:22:05;2.00;99.90
53264;DHT22;39153;52.680;6.172;2024-01-27T01:24:30;2.50;99.90
53264;DHT22;39153;52.680;6.172;2024-01-27T01:26:57;1.80;99.90
53264;DHT22;39153;52.680;6.172;2024-01-27T01:29:22;2.00;99.90
53264;DHT22;39153;52.680;6.172;2024-01-27T01:31:48;1.90;99.90
53264;DHT22;39153;52.680;6.172;2024-01-27T01:34:14;2.50;99.90
53264;DHT22;39153;52.680;6.172;2024-01-27T01:36:40;1.90;99.90
53264;DHT22;39153;52.680;6.172;2024-01-27T01:39:06;2.20;99.90
53264;DHT22;39153;52.680;6.172;2024-01-27T01:41:32;2.10;99.90
53264;DHT22;39153;52.680;6.172;2024-01-27T01:43:58;1.70;99.90
53264;DHT22;39153;52.680;6.172;2024-01-27T01:46:24;1.80;99.90
53264;DHT22;39153;52.680;6.172;2024-01-27T01:48:50;2.10;99.90
53264;DHT22;39153;52.680;6.172;2024-01-27T01:51:16;1.80;99.90
53264;DHT22;39153;52.680;6.172;2024-01-27T01:53:45;1.60;99.90
53264;DHT22;39153;52.680;6.172;2024-01-27T01:56:14;1.60;99.90
53264;DHT22;39153;52.680;6.172;2024-01-27T01:58:40;2.30;99.90
53264;DHT22;39153;52.680;6.172;2024-01-27T02:01:06;2.10;99.90
53264;DHT22;39153;52.680;6.172;2024-01-27T02:03:32;1.70;99.90
53264;DHT22;39153;52.680;6.172;2024-01-27T02:05:58;2.30;99.90
53264;DHT22;39153;52.680;6.172;2024-01-27T02:08:24;1.60;99.90
53264;DHT22;39153;52.680;6.172;2024-01-27T02:10:49;1.90;99.90
53264;DHT22;39153;52.680;6.172;2024-01-27T02:13:20;2.30;99.90
53264;DHT22;39153;52.680;6.172;2024-01-27T02:15:46;1.60;99.90
53264;DHT22;39153;52.680;6.172;2024-01-27T02:18:12;1.70;99.90
53264;DHT22;39153;52.680;6.172;2024-01-27T02:20:38;1.50;99.90
53264;DHT22;39153;52.680;6.172;2024-01-27T02:23:05;2.00;99.90
53264;DHT22;39153;52.680;6.172;2024-01-27T02:25:31;1.50;99.90
53264;DHT22;39153;52.680;6.172;2024-01-27T02:27:57;1.80;99.90
53264;DHT22;39153;52.680;6.172;2024-01-27T02:30:23;1.40;99.90
53264;DHT22;39153;52.680;6.172;2024-01-27T02:32:48;2.10;99.90
53264;DHT22;39153;52.680;6.172;2024-01-27T02:35:14;1.60;99.90
53264;DHT22;39153;52.680;6.172;2024-01-27T02:37:41;2.20;99.90
53264;DHT22;39153;52.680;6.172;2024-01-27T02:40:08;1.60;99.90
53264;DHT22;39153;52.680;6.172;2024-01-27T02:42:35;2.10;99.90
53264;DHT22;39153;52.680;6.172;2024-01-27T02:45:01;1.60;99.90
53264;DHT22;39153;52.680;6.172;2024-01-27T02:47:27;2.00;99.90
53264;DHT22;39153;52.680;6.172;2024-01-27T02:49:53;1.90;99.90
53264;DHT22;39153;52.680;6.172;2024-01-27T02:52:19;2.20;99.90
53264;DHT22;39153;52.680;6.172;2024-01-27T02:54:45;2.00;99.90
53264;DHT22;39153;52.680;6.172;2024-01-27T02:57:11;2.20;99.90
53264;DHT22;39153;52.680;6.172;2024-01-27T02:59:36;1.30;99.90
53264;DHT22;39153;52.680;6.172;2024-01-27T03:02:05;2.20;99.90
53264;DHT22;39153;52.680;6.172;2024-01-27T03:04:30;2.00;99.90
53264;DHT22;39153;52.680;6.172;2024-01-27T03:06:56;2.10;99.90
53264;DHT22;39153;52.680;6.172;2024-01-27T03:09:22;2.10;99.90
53264;DHT22;39153;52.680;6.172;2024-01-27T03:11:47;1.20;99.90
53264;DHT22;39153;52.680;6.172;2024-01-27T03:14:13;1.20;99.90
53264;DHT22;39153;52.680;6.172;2024-01-27T03:16:39;2.00;99.90
53264;DHT22;39153;52.680;6.172;2024-01-27T03:19:04;1.30;99.90
53264;DHT22;39153;52.680;6.172;2024-01-27T03:21:30;1.80;99.90
53264;DHT22;39153;52.680;6.172;2024-01-27T03:23:56;1.20;99.90
53264;DHT22;39153;52.680;6.172;2024-01-27T03:26:21;1.90;99.90
53264;DHT22;39153;52.680;6.172;2024-01-27T03:28:47;2.20;99.90
53264;DHT22;39153;52.680;6.172;2024-01-27T03:31:13;2.00;99.90
53264;DHT22;39153;52.680;6.172;2024-01-27T03:33:38;1.80;99.90
53264;DHT22;39153;52.680;6.172;2024-01-27T03:36:12;1.80;99.90
53264;DHT22;39153;52.680;6.172;2024-01-27T03:38:39;1.10;99.90
53264;DHT22;39153;52.680;6.172;2024-01-27T03:41:06;1.20;99.90
53264;DHT22;39153;52.680;6.172;2024-01-27T03:43:33;2.60;99.90
53264;DHT22;39153;52.680;6.172;2024-01-27T03:45:58;1.50;99.90
53264;DHT22;39153;52.680;6.172;2024-01-27T03:48:24;1.10;99.90
53264;DHT22;39153;52.680;6.172;2024-01-27T03:50:50;2.20;99.90
53264;DHT22;39153;52.680;6.172;2024-01-27T03:53:15;2.10;99.90
53264;DHT22;39153;52.680;6.172;2024-01-27T03:55:41;1.40;99.90
53264;DHT22;39153;52.680;6.172;2024-01-27T03:58:07;1.10;99.90
53264;DHT22;39153;52.680;6.172;2024-01-27T04:00:33;1.20;99.90
53264;DHT22;39153;52.680;6.172;2024-01-27T04:02:59;1.10;99.90
53264;DHT22;39153;52.680;6.172;2024-01-27T04:05:25;1.80;99.90
53264;DHT22;39153;52.680;6.172;2024-01-27T04:07:51;1.90;99.90
53264;DHT22;39153;52.680;6.172;2024-01-27T04:10:18;2.00;99.90
53264;DHT22;39153;52.680;6.172;2024-01-27T04:12:43;1.10;99.90
53264;DHT22;39153;52.680;6.172;2024-01-27T04:15:10;2.20;99.90
53264;DHT22;39153;52.680;6.172;2024-01-27T04:17:37;1.50;99.90
53264;DHT22;39153;52.680;6.172;2024-01-27T04:20:03;1.70;99.90
53264;DHT22;39153;52.680;6.172;2024-01-27T04:22:30;1.70;99.90
53264;DHT22;39153;52.680;6.172;2024-01-27T04:24:56;1.80;99.90
53264;DHT22;39153;52.680;6.172;2024-01-27T04:27:22;2.00;99.90
53264;DHT22;39153;52.680;6.172;2024-01-27T04:29:47;1.50;99.90
53264;DHT22;39153;52.680;6.172;2024-01-27T04:32:13;1.30;99.90
53264;DHT22;39153;52.680;6.172;2024-01-27T04:34:39;1.80;99.90
53264;DHT22;39153;52.680;6.172;2024-01-27T04:37:05;1.00;99.90
53264;DHT22;39153;52.680;6.172;2024-01-27T04:39:31;1.60;99.90
53264;DHT22;39153;52.680;6.172;2024-01-27T04:41:56;1.10;99.90
53264;DHT22;39153;52.680;6.172;2024-01-27T04:44:22;1.50;99.90
53264;DHT22;39153;52.680;6.172;2024-01-27T04:46:48;1.80;99.90
53264;DHT22;39153;52.680;6.172;2024-01-27T04:49:15;1.70;99.90
53264;DHT22;39153;52.680;6.172;2024-01-27T04:51:40;1.00;99.90
53264;DHT22;39153;52.680;6.172;2024-01-27T04:54:07;1.70;99.90
53264;DHT22;39153;52.680;6.172;2024-01-27T04:56:33;0.80;99.90
53264;DHT22;39153;52.680;6.172;2024-01-27T04:58:58;1.70;99.90
53264;DHT22;39153;52.680;6.172;2024-01-27T05:01:24;1.10;99.90
53264;DHT22;39153;52.680;6.172;2024-01-27T05:03:50;0.90;99.90
53264;DHT22;39153;52.680;6.172;2024-01-27T05:06:15;1.60;99.90
53264;DHT22;39153;52.680;6.172;2024-01-27T05:08:41;1.90;99.90
53264;DHT22;39153;52.680;6.172;2024-01-27T05:11:07;1.30;99.90
53264;DHT22;39153;52.680;6.172;2024-01-27T05:13:33;0.90;99.90
53264;DHT22;39153;52.680;6.172;2024-01-27T05:15:58;0.90;99.90
53264;DHT22;39153;52.680;6.172;2024-01-27T05:18:24;1.70;99.90
53264;DHT22;39153;52.680;6.172;2024-01-27T05:20:50;2.10;99.90
53264;DHT22;39153;52.680;6.172;2024-01-27T05:23:15;2.30;99.90
53264;DHT22;39153;52.680;6.172;2024-01-27T05:25:41;1.00;99.90
53264;DHT22;39153;52.680;6.172;2024-01-27T05:28:07;1.20;99.90
53264;DHT22;39153;52.680;6.172;2024-01-27T05:30:33;0.90;99.90
53264;DHT22;39153;52.680;6.172;2024-01-27T05:32:58;1.00;99.90
53264;DHT22;39153;52.680;6.172;2024-01-27T05:35:24;1.50;99.90
53264;DHT22;39153;52.680;6.172;2024-01-27T05:37:49;1.00;99.90
53264;DHT22;39153;52.680;6.172;2024-01-27T05:40:16;1.60;99.90
53264;DHT22;39153;52.680;6.172;2024-01-27T05:42:42;2.10;99.90
53264;DHT22;39153;52.680;6.172;2024-01-27T05:45:10;0.90;99.90
53264;DHT22;39153;52.680;6.172;2024-01-27T05:47:36;1.90;99.90
53264;DHT22;39153;52.680;6.172;2024-01-27T05:50:02;1.50;99.90
53264;DHT22;39153;52.680;6.172;2024-01-27T05:52:28;0.90;99.90
53264;DHT22;39153;52.680;6.172;2024-01-27T05:54:54;1.80;99.90
53264;DHT22;39153;52.680;6.172;2024-01-27T05:57:20;0.80;99.90
53264;DHT22;39153;52.680;6.172;2024-01-27T05:59:46;1.30;99.90
53264;DHT22;39153;52.680;6.172;2024-01-27T06:02:11;1.50;99.90
53264;DHT22;39153;52.680;6.172;2024-01-27T06:04:37;1.70;99.90
53264;DHT22;39153;52.680;6.172;2024-01-27T06:07:03;0.80;99.90
53264;DHT22;39153;52.680;6.172;2024-01-27T06:09:29;1.30;99.90
53264;DHT22;39153;52.680;6.172;2024-01-27T06:11:54;1.80;99.90
53264;DHT22;39153;52.680;6.172;2024-01-27T06:14:20;1.00;99.90
53264;DHT22;39153;52.680;6.172;2024-01-27T06:16:46;1.60;99.90
53264;DHT22;39153;52.680;6.172;2024-01-27T06:19:11;1.10;99.90
53264;DHT22;39153;52.680;6.172;2024-01-27T06:21:37;1.90;99.90
53264;DHT22;39153;52.680;6.172;2024-01-27T06:24:03;1.90;99.90
53264;DHT22;39153;52.680;6.172;2024-01-27T06:26:28;1.80;99.90
53264;DHT22;39153;52.680;6.172;2024-01-27T06:28:54;1.70;99.90
53264;DHT22;39153;52.680;6.172;2024-01-27T06:31:20;1.60;99.90
53264;DHT22;39153;52.680;6.172;2024-01-27T06:33:45;1.10;99.90
53264;DHT22;39153;52.680;6.172;2024-01-27T06:36:11;0.70;99.90
53264;DHT22;39153;52.680;6.172;2024-01-27T06:38:40;1.90;99.90
53264;DHT22;39153;52.680;6.172;2024-01-27T06:41:05;1.70;99.90
53264;DHT22;39153;52.680;6.172;2024-01-27T06:43:31;0.70;99.90
53264;DHT22;39153;52.680;6.172;2024-01-27T06:45:57;1.90;99.90
53264;DHT22;39153;52.680;6.172;2024-01-27T06:48:23;1.50;99.90
53264;DHT22;39153;52.680;6.172;2024-01-27T06:50:52;1.90;99.90
53264;DHT22;39153;52.680;6.172;2024-01-27T06:53:21;1.80;99.90
53264;DHT22;39153;52.680;6.172;2024-01-27T06:55:47;1.80;99.90
53264;DHT22;39153;52.680;6.172;2024-01-27T06:58:12;0.70;99.90
53264;DHT22;39153;52.680;6.172;2024-01-27T07:00:38;0.80;99.90
53264;DHT22;39153;52.680;6.172;2024-01-27T07:03:04;1.90;99.90
53264;DHT22;39153;52.680;6.172;2024-01-27T07:05:30;1.80;99.90
53264;DHT22;39153;52.680;6.172;2024-01-27T07:07:58;0.70;99.90
53264;DHT22;39153;52.680;6.172;2024-01-27T07:10:24;1.00;99.90
53264;DHT22;39153;52.680;6.172;2024-01-27T07:12:49;0.60;99.90
53264;DHT22;39153;52.680;6.172;2024-01-27T07:15:15;0.60;99.90
53264;DHT22;39153;52.680;6.172;2024-01-27T07:17:41;0.70;99.90
53264;DHT22;39153;52.680;6.172;2024-01-27T07:20:07;1.50;99.90
53264;DHT22;39153;52.680;6.172;2024-01-27T07:22:34;1.60;99.90
53264;DHT22;39153;52.680;6.172;2024-01-27T07:24:59;1.60;99.90
53264;DHT22;39153;52.680;6.172;2024-01-27T07:27:25;1.00;99.90
53264;DHT22;39153;52.680;6.172;2024-01-27T07:29:50;0.60;99.90
53264;DHT22;39153;52.680;6.172;2024-01-27T07:32:16;1.40;99.90
53264;DHT22;39153;52.680;6.172;2024-01-27T07:34:45;0.60;99.90
53264;DHT22;39153;52.680;6.172;2024-01-27T07:37:11;0.60;99.90
53264;DHT22;39153;52.680;6.172;2024-01-27T07:39:36;1.90;99.90
53264;DHT22;39153;52.680;6.172;2024-01-27T07:42:02;0.60;99.90
53264;DHT22;39153;52.680;6.172;2024-01-27T07:44:28;0.80;99.90
53264;DHT22;39153;52.680;6.172;2024-01-27T07:46:54;1.70;99.90
53264;DHT22;39153;52.680;6.172;2024-01-27T07:49:19;1.40;99.90
53264;DHT22;39153;52.680;6.172;2024-01-27T07:51:45;2.00;99.90
53264;DHT22;39153;52.680;6.172;2024-01-27T07:54:11;0.90;99.90
53264;DHT22;39153;52.680;6.172;2024-01-27T07:56:37;1.10;99.90
53264;DHT22;39153;52.680;6.172;2024-01-27T07:59:03;2.10;99.90
53264;DHT22;39153;52.680;6.172;2024-01-27T08:01:29;2.00;99.90
53264;DHT22;39153;52.680;6.172;2024-01-27T08:03:55;2.10;99.90
53264;DHT22;39153;52.680;6.172;2024-01-27T08:06:28;1.00;99.90
53264;DHT22;39153;52.680;6.172;2024-01-27T08:08:54;1.50;99.90
53264;DHT22;39153;52.680;6.172;2024-01-27T08:11:20;1.10;99.90
53264;DHT22;39153;52.680;6.172;2024-01-27T08:13:45;1.00;99.90
53264;DHT22;39153;52.680;6.172;2024-01-27T08:16:11;1.50;99.90
53264;DHT22;39153;52.680;6.172;2024-01-27T08:18:42;2.10;99.90
53264;DHT22;39153;52.680;6.172;2024-01-27T08:21:09;2.20;99.90
53264;DHT22;39153;52.680;6.172;2024-01-27T08:23:35;2.30;99.90
53264;DHT22;39153;52.680;6.172;2024-01-27T08:26:01;1.70;99.90
53264;DHT22;39153;52.680;6.172;2024-01-27T08:28:27;1.40;99.90
53264;DHT22;39153;52.680;6.172;2024-01-27T08:30:52;2.10;99.90
53264;DHT22;39153;52.680;6.172;2024-01-27T08:33:18;1.20;99.90
53264;DHT22;39153;52.680;6.172;2024-01-27T08:35:46;1.10;99.90
53264;DHT22;39153;52.680;6.172;2024-01-27T08:38:12;2.20;99.90
53264;DHT22;39153;52.680;6.172;2024-01-27T08:40:38;1.80;99.90
53264;DHT22;39153;52.680;6.172;2024-01-27T08:43:03;1.30;99.90
53264;DHT22;39153;52.680;6.172;2024-01-27T08:45:29;1.80;99.90
53264;DHT22;39153;52.680;6.172;2024-01-27T08:47:55;1.30;99.90
53264;DHT22;39153;52.680;6.172;2024-01-27T08:50:21;2.10;99.90
53264;DHT22;39153;52.680;6.172;2024-01-27T08:52:47;2.80;99.90
53264;DHT22;39153;52.680;6.172;2024-01-27T08:55:12;2.70;99.90
53264;DHT22;39153;52.680;6.172;2024-01-27T08:57:38;2.30;99.90
53264;DHT22;39153;52.680;6.172;2024-01-27T09:00:04;2.70;99.90
53264;DHT22;39153;52.680;6.172;2024-01-27T09:02:30;3.00;99.90
53264;DHT22;39153;52.680;6.172;2024-01-27T09:04:56;2.30;99.90
53264;DHT22;39153;52.680;6.172;2024-01-27T09:07:23;2.40;99.90
53264;DHT22;39153;52.680;6.172;2024-01-27T09:09:48;3.00;99.90
53264;DHT22;39153;52.680;6.172;2024-01-27T09:12:14;2.40;99.90
53264;DHT22;39153;52.680;6.172;2024-01-27T09:14:40;2.10;99.90
53264;DHT22;39153;52.680;6.172;2024-01-27T09:17:06;3.30;99.90
53264;DHT22;39153;52.680;6.172;2024-01-27T09:19:31;3.30;99.90
53264;DHT22;39153;52.680;6.172;2024-01-27T09:21:58;2.40;99.90
53264;DHT22;39153;52.680;6.172;2024-01-27T09:24:23;3.30;99.90
53264;DHT22;39153;52.680;6.172;2024-01-27T09:26:49;2.50;99.90
53264;DHT22;39153;52.680;6.172;2024-01-27T09:29:15;2.60;99.90
53264;DHT22;39153;52.680;6.172;2024-01-27T09:31:40;3.50;99.90
53264;DHT22;39153;52.680;6.172;2024-01-27T09:34:06;3.70;99.90
53264;DHT22;39153;52.680;6.172;2024-01-27T09:36:32;3.70;99.90
53264;DHT22;39153;52.680;6.172;2024-01-27T09:38:57;3.70;99.90
53264;DHT22;39153;52.680;6.172;2024-01-27T09:41:30;4.00;99.90
53264;DHT22;39153;52.680;6.172;2024-01-27T09:44:02;3.90;99.90
53264;DHT22;39153;52.680;6.172;2024-01-27T09:46:29;3.90;99.90
53264;DHT22;39153;52.680;6.172;2024-01-27T09:48:55;4.30;99.90
53264;DHT22;39153;52.680;6.172;2024-01-27T09:51:21;3.40;99.90
53264;DHT22;39153;52.680;6.172;2024-01-27T09:53:48;4.10;99.90
53264;DHT22;39153;52.680;6.172;2024-01-27T09:56:16;4.20;99.90
53264;DHT22;39153;52.680;6.172;2024-01-27T09:58:47;4.20;99.90
53264;DHT22;39153;52.680;6.172;2024-01-27T10:01:17;4.70;99.90
53264;DHT22;39153;52.680;6.172;2024-01-27T10:03:46;4.70;99.90
53264;DHT22;39153;52.680;6.172;2024-01-27T10:06:12;5.10;99.90
53264;DHT22;39153;52.680;6.172;2024-01-27T10:08:39;4.90;99.90
53264;DHT22;39153;52.680;6.172;2024-01-27T10:11:09;4.80;99.90
53264;DHT22;39153;52.680;6.172;2024-01-27T10:13:35;5.00;99.90
53264;DHT22;39153;52.680;6.172;2024-01-27T10:16:06;5.10;99.90
53264;DHT22;39153;52.680;6.172;2024-01-27T10:18:32;5.10;99.90
53264;DHT22;39153;52.680;6.172;2024-01-27T10:20:59;4.80;99.90
53264;DHT22;39153;52.680;6.172;2024-01-27T10:23:24;5.10;99.90
53264;DHT22;39153;52.680;6.172;2024-01-27T10:25:51;4.60;99.90
53264;DHT22;39153;52.680;6.172;2024-01-27T10:28:17;5.30;99.90
53264;DHT22;39153;52.680;6.172;2024-01-27T10:30:46;5.10;99.90
53264;DHT22;39153;52.680;6.172;2024-01-27T10:33:14;6.00;99.90
53264;DHT22;39153;52.680;6.172;2024-01-27T10:35:40;6.10;99.90
53264;DHT22;39153;52.680;6.172;2024-01-27T10:38:06;6.60;99.90
53264;DHT22;39153;52.680;6.172;2024-01-27T10:40:32;6.90;99.90
53264;DHT22;39153;52.680;6.172;2024-01-27T10:43:03;7.00;99.90
53264;DHT22;39153;52.680;6.172;2024-01-27T10:45:39;7.00;99.90
53264;DHT22;39153;52.680;6.172;2024-01-27T10:48:07;7.30;99.90
53264;DHT22;39153;52.680;6.172;2024-01-27T10:50:37;7.30;99.90
53264;DHT22;39153;52.680;6.172;2024-01-27T10:53:05;7.40;99.90
53264;DHT22;39153;52.680;6.172;2024-01-27T10:55:34;7.40;99.90
53264;DHT22;39153;52.680;6.172;2024-01-27T10:58:02;7.70;99.90
53264;DHT22;39153;52.680;6.172;2024-01-27T11:00:29;7.60;99.90
53264;DHT22;39153;52.680;6.172;2024-01-27T11:03:01;7.90;99.90
53264;DHT22;39153;52.680;6.172;2024-01-27T11:05:28;7.90;99.90
53264;DHT22;39153;52.680;6.172;2024-01-27T11:07:59;8.10;99.90
53264;DHT22;39153;52.680;6.172;2024-01-27T11:10:25;8.00;99.90
53264;DHT22;39153;52.680;6.172;2024-01-27T11:12:52;7.90;99.90
53264;DHT22;39153;52.680;6.172;2024-01-27T11:15:21;7.60;99.90
53264;DHT22;39153;52.680;6.172;2024-01-27T11:17:47;7.50;99.90
53264;DHT22;39153;52.680;6.172;2024-01-27T11:20:12;7.50;99.90
53264;DHT22;39153;52.680;6.172;2024-01-27T11:22:41;7.40;99.90
53264;DHT22;39153;52.680;6.172;2024-01-27T11:27:39;7.60;99.90
53264;DHT22;39153;52.680;6.172;2024-01-27T11:30:06;7.90;99.90
53264;DHT22;39153;52.680;6.172;2024-01-27T11:32:36;8.10;99.90
53264;DHT22;39153;52.680;6.172;2024-01-27T11:35:02;8.30;99.90
53264;DHT22;39153;52.680;6.172;2024-01-27T11:37:31;8.40;99.90
53264;DHT22;39153;52.680;6.172;2024-01-27T11:40:06;8.70;99.90
53264;DHT22;39153;52.680;6.172;2024-01-27T11:42:32;9.00;99.90
53264;DHT22;39153;52.680;6.172;2024-01-27T11:44:58;9.10;99.90
53264;DHT22;39153;52.680;6.172;2024-01-27T11:47:26;9.30;99.90
53264;DHT22;39153;52.680;6.172;2024-01-27T11:49:53;9.50;99.90
53264;DHT22;39153;52.680;6.172;2024-01-27T11:52:19;9.50;99.90
53264;DHT22;39153;52.680;6.172;2024-01-27T11:54:45;9.40;99.90
53264;DHT22;39153;52.680;6.172;2024-01-27T11:57:10;9.50;99.90
53264;DHT22;39153;52.680;6.172;2024-01-27T11:59:36;9.50;99.90
53264;DHT22;39153;52.680;6.172;2024-01-27T12:02:02;9.60;99.90
53264;DHT22;39153;52.680;6.172;2024-01-27T12:04:28;9.60;99.90
53264;DHT22;39153;52.680;6.172;2024-01-27T12:06:54;9.60;99.90
53264;DHT22;39153;52.680;6.172;2024-01-27T12:09:20;9.70;99.90
53264;DHT22;39153;52.680;6.172;2024-01-27T12:11:46;9.60;99.90
53264;DHT22;39153;52.680;6.172;2024-01-27T12:14:12;9.60;99.90
53264;DHT22;39153;52.680;6.172;2024-01-27T12:16:38;9.60;99.90
53264;DHT22;39153;52.680;6.172;2024-01-27T12:19:04;9.60;99.90
53264;DHT22;39153;52.680;6.172;2024-01-27T12:21:30;9.70;99.90
53264;DHT22;39153;52.680;6.172;2024-01-27T12:23:57;9.60;99.90
53264;DHT22;39153;52.680;6.172;2024-01-27T12:26:29;9.70;99.90
53264;DHT22;39153;52.680;6.172;2024-01-27T12:28:56;9.70;99.90
53264;DHT22;39153;52.680;6.172;2024-01-27T12:31:24;9.80;99.90
53264;DHT22;39153;52.680;6.172;2024-01-27T12:33:51;9.80;99.90
53264;DHT22;39153;52.680;6.172;2024-01-27T12:36:18;9.80;99.90
53264;DHT22;39153;52.680;6.172;2024-01-27T12:38:57;9.80;99.90
53264;DHT22;39153;52.680;6.172;2024-01-27T12:41:25;9.80;99.90
53264;DHT22;39153;52.680;6.172;2024-01-27T12:43:51;9.90;99.90
53264;DHT22;39153;52.680;6.172;2024-01-27T12:46:17;9.90;99.90
53264;DHT22;39153;52.680;6.172;2024-01-27T12:48:44;10.00;99.90
53264;DHT22;39153;52.680;6.172;2024-01-27T12:51:10;10.00;99.90
53264;DHT22;39153;52.680;6.172;2024-01-27T12:53:38;10.10;99.90
53264;DHT22;39153;52.680;6.172;2024-01-27T12:56:04;10.20;99.90
53264;DHT22;39153;52.680;6.172;2024-01-27T12:58:30;10.30;99.90
53264;DHT22;39153;52.680;6.172;2024-01-27T13:00:55;10.40;99.90
53264;DHT22;39153;52.680;6.172;2024-01-27T13:03:21;10.40;99.90
53264;DHT22;39153;52.680;6.172;2024-01-27T13:05:47;10.40;99.90
53264;DHT22;39153;52.680;6.172;2024-01-27T13:08:13;10.40;99.90
53264;DHT22;39153;52.680;6.172;2024-01-27T13:10:39;10.40;99.90
53264;DHT22;39153;52.680;6.172;2024-01-27T13:13:04;10.50;99.90
53264;DHT22;39153;52.680;6.172;2024-01-27T13:15:30;10.50;99.90
53264;DHT22;39153;52.680;6.172;2024-01-27T13:17:56;10.60;99.90
53264;DHT22;39153;52.680;6.172;2024-01-27T13:20:22;10.60;99.90
53264;DHT22;39153;52.680;6.172;2024-01-27T13:22:47;10.60;99.90
53264;DHT22;39153;52.680;6.172;2024-01-27T13:25:14;10.60;99.90
53264;DHT22;39153;52.680;6.172;2024-01-27T13:27:40;10.60;99.90
53264;DHT22;39153;52.680;6.172;2024-01-27T13:30:06;10.50;99.90
53264;DHT22;39153;52.680;6.172;2024-01-27T13:32:32;10.50;99.90
53264;DHT22;39153;52.680;6.172;2024-01-27T13:34:57;10.50;99.90
53264;DHT22;39153;52.680;6.172;2024-01-27T13:37:23;10.60;99.90
53264;DHT22;39153;52.680;6.172;2024-01-27T13:39:49;10.70;99.90
53264;DHT22;39153;52.680;6.172;2024-01-27T13:42:14;10.70;99.90
53264;DHT22;39153;52.680;6.172;2024-01-27T13:44:40;10.60;99.90
53264;DHT22;39153;52.680;6.172;2024-01-27T13:47:07;10.50;99.90
53264;DHT22;39153;52.680;6.172;2024-01-27T13:49:35;10.50;99.90
53264;DHT22;39153;52.680;6.172;2024-01-27T13:52:00;10.50;99.90
53264;DHT22;39153;52.680;6.172;2024-01-27T13:54:26;10.30;99.90
53264;DHT22;39153;52.680;6.172;2024-01-27T13:56:52;10.20;99.90
53264;DHT22;39153;52.680;6.172;2024-01-27T13:59:17;10.00;99.90
53264;DHT22;39153;52.680;6.172;2024-01-27T14:01:44;9.90;99.90
53264;DHT22;39153;52.680;6.172;2024-01-27T14:04:10;9.70;99.90
53264;DHT22;39153;52.680;6.172;2024-01-27T14:06:36;9.50;99.90
53264;DHT22;39153;52.680;6.172;2024-01-27T14:09:02;9.40;99.90
53264;DHT22;39153;52.680;6.172;2024-01-27T14:11:28;9.30;99.90
53264;DHT22;39153;52.680;6.172;2024-01-27T14:13:54;9.20;99.90
53264;DHT22;39153;52.680;6.172;2024-01-27T14:16:19;9.20;99.90
53264;DHT22;39153;52.680;6.172;2024-01-27T14:18:45;9.20;99.90
53264;DHT22;39153;52.680;6.172;2024-01-27T14:21:12;9.10;99.90
53264;DHT22;39153;52.680;6.172;2024-01-27T14:23:38;9.10;99.90
53264;DHT22;39153;52.680;6.172;2024-01-27T14:26:04;9.10;99.90
53264;DHT22;39153;52.680;6.172;2024-01-27T14:28:30;9.30;99.90
53264;DHT22;39153;52.680;6.172;2024-01-27T14:30:55;8.90;99.90
53264;DHT22;39153;52.680;6.172;2024-01-27T14:33:21;8.80;99.90
53264;DHT22;39153;52.680;6.172;2024-01-27T14:35:48;8.80;99.90
53264;DHT22;39153;52.680;6.172;2024-01-27T14:38:14;8.70;99.90
53264;DHT22;39153;52.680;6.172;2024-01-27T14:40:40;8.60;99.90
53264;DHT22;39153;52.680;6.172;2024-01-27T14:43:06;8.60;99.90
53264;DHT22;39153;52.680;6.172;2024-01-27T14:45:35;8.60;99.90
53264;DHT22;39153;52.680;6.172;2024-01-27T14:48:01;8.50;99.90
53264;DHT22;39153;52.680;6.172;2024-01-27T14:50:28;8.50;99.90
53264;DHT22;39153;52.680;6.172;2024-01-27T14:52:53;8.40;99.90
53264;DHT22;39153;52.680;6.172;2024-01-27T14:55:19;8.30;99.90
53264;DHT22;39153;52.680;6.172;2024-01-27T14:57:45;8.40;99.90
53264;DHT22;39153;52.680;6.172;2024-01-27T15:00:11;8.30;99.90
53264;DHT22;39153;52.680;6.172;2024-01-27T15:02:41;8.20;99.90
53264;DHT22;39153;52.680;6.172;2024-01-27T15:05:07;8.20;99.90
53264;DHT22;39153;52.680;6.172;2024-01-27T15:07:34;8.10;99.90
53264;DHT22;39153;52.680;6.172;2024-01-27T15:10:00;8.10;99.90
53264;DHT22;39153;52.680;6.172;2024-01-27T15:12:26;8.00;99.90
53264;DHT22;39153;52.680;6.172;2024-01-27T15:14:51;8.00;99.90
53264;DHT22;39153;52.680;6.172;2024-01-27T15:17:18;7.90;99.90
53264;DHT22;39153;52.680;6.172;2024-01-27T15:19:44;7.80;99.90
53264;DHT22;39153;52.680;6.172;2024-01-27T15:22:10;7.80;99.90
53264;DHT22;39153;52.680;6.172;2024-01-27T15:24:35;7.70;99.90
53264;DHT22;39153;52.680;6.172;2024-01-27T15:27:03;7.70;99.90
53264;DHT22;39153;52.680;6.172;2024-01-27T15:29:29;7.60;99.90
53264;DHT22;39153;52.680;6.172;2024-01-27T15:31:55;7.60;99.90
53264;DHT22;39153;52.680;6.172;2024-01-27T15:34:21;7.60;99.90
53264;DHT22;39153;52.680;6.172;2024-01-27T15:36:47;7.50;99.90
53264;DHT22;39153;52.680;6.172;2024-01-27T15:39:12;7.40;99.90
53264;DHT22;39153;52.680;6.172;2024-01-27T15:41:38;7.30;99.90